sensor_id;sensor_type;location;lat;lon;timestamp;P1;durP1;ratioP1;P2;durP2;ratioP2
66702;SDS011;60933;46.398;-63.798;2024-03-06T00:01:45;6.15;;;0.82;;
66702;SDS011;60933;46.398;-63.798;2024-03-06T00:04:14;6.50;;;1.75;;
66702;SDS011;60933;46.398;-63.798;2024-03-06T00:06:45;3.03;;;0.70;;
66702;SDS011;60933;46.398;-63.798;2024-03-06T00:09:13;4.88;;;0.82;;
66702;SDS011;60933;46.398;-63.798;2024-03-06T00:11:41;2.20;;;0.60;;
66702;SDS011;60933;46.398;-63.798;2024-03-06T00:14:09;1.83;;;1.17;;
66702;SDS011;60933;46.398;-63.798;2024-03-06T00:16:39;2.92;;;0.38;;
66702;SDS011;60933;46.398;-63.798;2024-03-06T00:19:07;3.08;;;1.00;;
66702;SDS011;60933;46.398;-63.798;2024-03-06T00:21:36;3.20;;;0.70;;
66702;SDS011;60933;46.398;-63.798;2024-03-06T00:24:04;1.70;;;0.45;;
66702;SDS011;60933;46.398;-63.798;2024-03-06T00:26:32;3.53;;;0.70;;
66702;SDS011;60933;46.398;-63.798;2024-03-06T00:29:01;3.95;;;1.10;;
66702;SDS011;60933;46.398;-63.798;2024-03-06T00:31:29;3.22;;;0.80;;
66702;SDS011;60933;46.398;-63.798;2024-03-06T00:33:57;2.83;;;0.77;;
66702;SDS011;60933;46.398;-63.798;2024-03-06T00:36:25;4.07;;;0.50;;
66702;SDS011;60933;46.398;-63.798;2024-03-06T00:38:53;3.38;;;0.70;;
66702;SDS011;60933;46.398;-63.798;2024-03-06T00:41:21;5.65;;;0.98;;
66702;SDS011;60933;46.398;-63.798;2024-03-06T00:43:50;5.10;;;0.50;;
66702;SDS011;60933;46.398;-63.798;2024-03-06T00:46:19;6.78;;;1.13;;
66702;SDS011;60933;46.398;-63.798;2024-03-06T00:48:47;1.85;;;0.45;;
66702;SDS011;60933;46.398;-63.798;2024-03-06T00:51:15;3.15;;;1.05;;
66702;SDS011;60933;46.398;-63.798;2024-03-06T00:53:44;3.53;;;0.90;;
66702;SDS011;60933;46.398;-63.798;2024-03-06T00:56:13;3.40;;;0.98;;
66702;SDS011;60933;46.398;-63.798;2024-03-06T00:58:41;2.88;;;0.85;;
66702;SDS011;60933;46.398;-63.798;2024-03-06T01:01:12;2.05;;;0.50;;
66702;SDS011;60933;46.398;-63.798;2024-03-06T01:03:56;6.45;;;1.90;;
66702;SDS011;60933;46.398;-63.798;2024-03-06T01:06:26;3.97;;;1.25;;
66702;SDS011;60933;46.398;-63.798;2024-03-06T01:08:55;3.75;;;1.30;;
66702;SDS011;60933;46.398;-63.798;2024-03-06T01:11:24;2.97;;;0.85;;
66702;SDS011;60933;46.398;-63.798;2024-03-06T01:13:54;3.55;;;1.67;;
66702;SDS011;60933;46.398;-63.798;2024-03-06T01:16:22;3.13;;;1.45;;
66702;SDS011;60933;46.398;-63.798;2024-03-06T01:18:50;4.78;;;0.85;;
66702;SDS011;60933;46.398;-63.798;2024-03-06T01:21:20;5.72;;;1.10;;
66702;SDS011;60933;46.398;-63.798;2024-03-06T01:23:48;1.52;;;1.23;;
66702;SDS011;60933;46.398;-63.798;2024-03-06T01:26:16;4.22;;;1.33;;
66702;SDS011;60933;46.398;-63.798;2024-03-06T01:28:44;2.33;;;0.93;;
66702;SDS011;60933;46.398;-63.798;2024-03-06T01:31:13;2.20;;;0.80;;
66702;SDS011;60933;46.398;-63.798;2024-03-06T01:33:41;1.42;;;0.40;;
66702;SDS011;60933;46.398;-63.798;2024-03-06T01:36:09;1.60;;;1.40;;
66702;SDS011;60933;46.398;-63.798;2024-03-06T01:38:38;2.92;;;0.60;;
66702;SDS011;60933;46.398;-63.798;2024-03-06T01:41:06;2.38;;;0.45;;
66702;SDS011;60933;46.398;-63.798;2024-03-06T01:43:38;4.38;;;1.00;;
66702;SDS011;60933;46.398;-63.798;2024-03-06T01:46:09;1.85;;;0.50;;
66702;SDS011;60933;46.398;-63.798;2024-03-06T01:48:37;1.63;;;1.20;;
66702;SDS011;60933;46.398;-63.798;2024-03-06T01:51:06;3.42;;;1.02;;
66702;SDS011;60933;46.398;-63.798;2024-03-06T01:53:34;1.65;;;0.40;;
66702;SDS011;60933;46.398;-63.798;2024-03-06T01:56:04;1.48;;;0.52;;
66702;SDS011;60933;46.398;-63.798;2024-03-06T01:58:33;1.85;;;0.47;;
66702;SDS011;60933;46.398;-63.798;2024-03-06T02:01:01;2.38;;;1.20;;
66702;SDS011;60933;46.398;-63.798;2024-03-06T02:03:31;4.47;;;1.15;;
66702;SDS011;60933;46.398;-63.798;2024-03-06T02:06:00;5.05;;;1.40;;
66702;SDS011;60933;46.398;-63.798;2024-03-06T02:08:31;5.40;;;1.20;;
66702;SDS011;60933;46.398;-63.798;2024-03-06T02:11:00;1.95;;;0.32;;
66702;SDS011;60933;46.398;-63.798;2024-03-06T02:13:30;1.55;;;0.88;;
66702;SDS011;60933;46.398;-63.798;2024-03-06T02:15:59;1.42;;;1.10;;
66702;SDS011;60933;46.398;-63.798;2024-03-06T02:18:27;1.90;;;1.67;;
66702;SDS011;60933;46.398;-63.798;2024-03-06T02:20:55;2.17;;;0.43;;
66702;SDS011;60933;46.398;-63.798;2024-03-06T02:23:23;1.50;;;0.75;;
66702;SDS011;60933;46.398;-63.798;2024-03-06T02:25:51;3.33;;;0.60;;
66702;SDS011;60933;46.398;-63.798;2024-03-06T02:28:19;4.40;;;1.05;;
66702;SDS011;60933;46.398;-63.798;2024-03-06T02:30:51;4.22;;;1.33;;
66702;SDS011;60933;46.398;-63.798;2024-03-06T02:33:19;1.65;;;0.45;;
66702;SDS011;60933;46.398;-63.798;2024-03-06T02:35:47;1.90;;;0.70;;
66702;SDS011;60933;46.398;-63.798;2024-03-06T02:38:15;1.27;;;0.98;;
66702;SDS011;60933;46.398;-63.798;2024-03-06T02:40:43;1.67;;;0.40;;
66702;SDS011;60933;46.398;-63.798;2024-03-06T02:43:12;3.10;;;1.17;;
66702;SDS011;60933;46.398;-63.798;2024-03-06T02:45:40;1.15;;;0.70;;
66702;SDS011;60933;46.398;-63.798;2024-03-06T02:48:09;1.40;;;0.40;;
66702;SDS011;60933;46.398;-63.798;2024-03-06T02:50:37;1.65;;;0.50;;
66702;SDS011;60933;46.398;-63.798;2024-03-06T02:53:05;1.38;;;0.35;;
66702;SDS011;60933;46.398;-63.798;2024-03-06T02:55:35;1.67;;;0.40;;
66702;SDS011;60933;46.398;-63.798;2024-03-06T02:58:03;3.65;;;1.58;;
66702;SDS011;60933;46.398;-63.798;2024-03-06T03:00:31;1.20;;;0.47;;
66702;SDS011;60933;46.398;-63.798;2024-03-06T03:02:59;1.40;;;0.40;;
66702;SDS011;60933;46.398;-63.798;2024-03-06T03:05:27;1.75;;;0.45;;
66702;SDS011;60933;46.398;-63.798;2024-03-06T03:07:55;2.55;;;0.50;;
66702;SDS011;60933;46.398;-63.798;2024-03-06T03:10:23;2.08;;;0.60;;
66702;SDS011;60933;46.398;-63.798;2024-03-06T03:12:51;2.63;;;0.50;;
66702;SDS011;60933;46.398;-63.798;2024-03-06T03:15:21;2.00;;;0.47;;
66702;SDS011;60933;46.398;-63.798;2024-03-06T03:17:52;1.83;;;0.40;;
66702;SDS011;60933;46.398;-63.798;2024-03-06T03:20:20;1.50;;;1.10;;
66702;SDS011;60933;46.398;-63.798;2024-03-06T03:22:48;2.45;;;0.90;;
66702;SDS011;60933;46.398;-63.798;2024-03-06T03:25:16;1.98;;;0.30;;
66702;SDS011;60933;46.398;-63.798;2024-03-06T03:27:44;1.80;;;0.30;;
66702;SDS011;60933;46.398;-63.798;2024-03-06T03:30:12;1.83;;;0.30;;
66702;SDS011;60933;46.398;-63.798;2024-03-06T03:32:40;1.25;;;1.17;;
66702;SDS011;60933;46.398;-63.798;2024-03-06T03:35:08;0.60;;;0.35;;
66702;SDS011;60933;46.398;-63.798;2024-03-06T03:37:36;2.50;;;1.30;;
66702;SDS011;60933;46.398;-63.798;2024-03-06T03:40:05;1.45;;;0.82;;
66702;SDS011;60933;46.398;-63.798;2024-03-06T03:42:34;0.73;;;0.52;;
66702;SDS011;60933;46.398;-63.798;2024-03-06T03:45:02;1.77;;;0.40;;
66702;SDS011;60933;46.398;-63.798;2024-03-06T03:47:31;2.72;;;0.73;;
66702;SDS011;60933;46.398;-63.798;2024-03-06T03:49:59;1.42;;;0.80;;
66702;SDS011;60933;46.398;-63.798;2024-03-06T03:52:36;1.75;;;0.85;;
66702;SDS011;60933;46.398;-63.798;2024-03-06T03:55:09;1.42;;;0.75;;
66702;SDS011;60933;46.398;-63.798;2024-03-06T03:57:37;0.52;;;0.30;;
66702;SDS011;60933;46.398;-63.798;2024-03-06T04:00:05;2.22;;;0.93;;
66702;SDS011;60933;46.398;-63.798;2024-03-06T04:02:38;1.83;;;1.00;;
66702;SDS011;60933;46.398;-63.798;2024-03-06T04:05:06;1.13;;;1.00;;
66702;SDS011;60933;46.398;-63.798;2024-03-06T04:07:37;1.55;;;1.10;;
66702;SDS011;60933;46.398;-63.798;2024-03-06T04:10:06;1.42;;;1.00;;
66702;SDS011;60933;46.398;-63.798;2024-03-06T04:12:34;3.28;;;1.17;;
66702;SDS011;60933;46.398;-63.798;2024-03-06T04:15:02;1.45;;;1.00;;
66702;SDS011;60933;46.398;-63.798;2024-03-06T04:17:31;1.73;;;1.00;;
66702;SDS011;60933;46.398;-63.798;2024-03-06T04:19:59;1.60;;;1.02;;
66702;SDS011;60933;46.398;-63.798;2024-03-06T04:22:27;1.38;;;1.27;;
66702;SDS011;60933;46.398;-63.798;2024-03-06T04:24:56;1.88;;;0.47;;
66702;SDS011;60933;46.398;-63.798;2024-03-06T04:27:25;0.80;;;0.40;;
66702;SDS011;60933;46.398;-63.798;2024-03-06T04:29:53;1.70;;;0.88;;
66702;SDS011;60933;46.398;-63.798;2024-03-06T04:32:21;0.98;;;0.80;;
66702;SDS011;60933;46.398;-63.798;2024-03-06T04:34:50;1.48;;;0.98;;
66702;SDS011;60933;46.398;-63.798;2024-03-06T04:37:18;1.13;;;1.08;;
66702;SDS011;60933;46.398;-63.798;2024-03-06T04:39:46;2.30;;;1.08;;
66702;SDS011;60933;46.398;-63.798;2024-03-06T04:42:14;1.48;;;1.20;;
66702;SDS011;60933;46.398;-63.798;2024-03-06T04:44:42;1.65;;;0.98;;
66702;SDS011;60933;46.398;-63.798;2024-03-06T04:47:10;1.48;;;0.55;;
66702;SDS011;60933;46.398;-63.798;2024-03-06T04:49:38;1.00;;;0.63;;
66702;SDS011;60933;46.398;-63.798;2024-03-06T04:52:06;1.42;;;1.30;;
66702;SDS011;60933;46.398;-63.798;2024-03-06T04:54:35;1.13;;;1.10;;
66702;SDS011;60933;46.398;-63.798;2024-03-06T04:57:03;1.95;;;1.10;;
66702;SDS011;60933;46.398;-63.798;2024-03-06T04:59:31;0.82;;;0.40;;
66702;SDS011;60933;46.398;-63.798;2024-03-06T05:01:59;0.70;;;0.30;;
66702;SDS011;60933;46.398;-63.798;2024-03-06T05:04:27;0.90;;;0.40;;
66702;SDS011;60933;46.398;-63.798;2024-03-06T05:07:11;0.85;;;0.43;;
66702;SDS011;60933;46.398;-63.798;2024-03-06T05:09:57;2.33;;;0.30;;
66702;SDS011;60933;46.398;-63.798;2024-03-06T05:12:43;1.65;;;0.60;;
66702;SDS011;60933;46.398;-63.798;2024-03-06T05:15:28;1.27;;;0.40;;
66702;SDS011;60933;46.398;-63.798;2024-03-06T05:18:13;0.80;;;0.57;;
66702;SDS011;60933;46.398;-63.798;2024-03-06T05:20:57;1.10;;;0.60;;
66702;SDS011;60933;46.398;-63.798;2024-03-06T05:23:42;1.30;;;1.15;;
66702;SDS011;60933;46.398;-63.798;2024-03-06T05:29:11;0.88;;;0.88;;
66702;SDS011;60933;46.398;-63.798;2024-03-06T05:31:56;1.10;;;1.00;;
66702;SDS011;60933;46.398;-63.798;2024-03-06T05:34:42;1.08;;;0.82;;
66702;SDS011;60933;46.398;-63.798;2024-03-06T05:37:27;0.80;;;0.45;;
66702;SDS011;60933;46.398;-63.798;2024-03-06T05:40:12;1.17;;;0.55;;
66702;SDS011;60933;46.398;-63.798;2024-03-06T05:42:57;1.88;;;1.35;;
66702;SDS011;60933;46.398;-63.798;2024-03-06T05:45:42;1.67;;;1.27;;
66702;SDS011;60933;46.398;-63.798;2024-03-06T05:48:26;0.90;;;0.30;;
66702;SDS011;60933;46.398;-63.798;2024-03-06T05:51:11;1.42;;;0.60;;
66702;SDS011;60933;46.398;-63.798;2024-03-06T05:53:56;1.27;;;1.17;;
66702;SDS011;60933;46.398;-63.798;2024-03-06T05:59:26;1.08;;;1.00;;
66702;SDS011;60933;46.398;-63.798;2024-03-06T06:01:54;0.70;;;0.30;;
66702;SDS011;60933;46.398;-63.798;2024-03-06T06:04:22;0.88;;;0.88;;
66702;SDS011;60933;46.398;-63.798;2024-03-06T06:06:50;0.82;;;0.82;;
66702;SDS011;60933;46.398;-63.798;2024-03-06T06:09:19;1.35;;;1.25;;
66702;SDS011;60933;46.398;-63.798;2024-03-06T06:11:47;0.77;;;0.77;;
66702;SDS011;60933;46.398;-63.798;2024-03-06T06:14:15;0.77;;;0.45;;
66702;SDS011;60933;46.398;-63.798;2024-03-06T06:16:43;0.50;;;0.30;;
66702;SDS011;60933;46.398;-63.798;2024-03-06T06:19:11;0.98;;;0.40;;
66702;SDS011;60933;46.398;-63.798;2024-03-06T06:21:39;0.75;;;0.35;;
66702;SDS011;60933;46.398;-63.798;2024-03-06T06:24:07;0.55;;;0.35;;
66702;SDS011;60933;46.398;-63.798;2024-03-06T06:26:35;0.40;;;0.20;;
66702;SDS011;60933;46.398;-63.798;2024-03-06T06:29:04;0.60;;;0.20;;
66702;SDS011;60933;46.398;-63.798;2024-03-06T06:31:32;0.25;;;0.20;;
66702;SDS011;60933;46.398;-63.798;2024-03-06T06:34:00;0.52;;;0.38;;
66702;SDS011;60933;46.398;-63.798;2024-03-06T06:36:28;1.00;;;1.00;;
66702;SDS011;60933;46.398;-63.798;2024-03-06T06:38:56;0.38;;;0.30;;
66702;SDS011;60933;46.398;-63.798;2024-03-06T06:41:30;0.17;;;0.10;;
66702;SDS011;60933;46.398;-63.798;2024-03-06T06:43:58;0.90;;;0.90;;
66702;SDS011;60933;46.398;-63.798;2024-03-06T06:46:26;0.77;;;0.77;;
66702;SDS011;60933;46.398;-63.798;2024-03-06T06:48:54;0.50;;;0.30;;
66702;SDS011;60933;46.398;-63.798;2024-03-06T06:51:22;0.85;;;0.85;;
66702;SDS011;60933;46.398;-63.798;2024-03-06T06:53:50;0.47;;;0.40;;
66702;SDS011;60933;46.398;-63.798;2024-03-06T06:56:20;0.47;;;0.20;;
66702;SDS011;60933;46.398;-63.798;2024-03-06T06:58:51;0.40;;;0.40;;
66702;SDS011;60933;46.398;-63.798;2024-03-06T07:01:18;0.30;;;0.17;;
66702;SDS011;60933;46.398;-63.798;2024-03-06T07:03:47;1.05;;;0.20;;
66702;SDS011;60933;46.398;-63.798;2024-03-06T07:06:16;0.68;;;0.32;;
66702;SDS011;60933;46.398;-63.798;2024-03-06T07:08:44;0.45;;;0.20;;
66702;SDS011;60933;46.398;-63.798;2024-03-06T07:11:12;0.43;;;0.22;;
66702;SDS011;60933;46.398;-63.798;2024-03-06T07:13:40;0.45;;;0.20;;
66702;SDS011;60933;46.398;-63.798;2024-03-06T07:16:08;1.55;;;0.30;;
66702;SDS011;60933;46.398;-63.798;2024-03-06T07:18:36;1.10;;;0.30;;
66702;SDS011;60933;46.398;-63.798;2024-03-06T07:21:04;0.57;;;0.28;;
66702;SDS011;60933;46.398;-63.798;2024-03-06T07:23:32;0.52;;;0.40;;
66702;SDS011;60933;46.398;-63.798;2024-03-06T07:26:00;0.30;;;0.20;;
66702;SDS011;60933;46.398;-63.798;2024-03-06T07:28:29;0.60;;;0.30;;
66702;SDS011;60933;46.398;-63.798;2024-03-06T07:30:56;0.50;;;0.38;;
66702;SDS011;60933;46.398;-63.798;2024-03-06T07:33:24;1.15;;;0.40;;
66702;SDS011;60933;46.398;-63.798;2024-03-06T07:35:52;0.40;;;0.35;;
66702;SDS011;60933;46.398;-63.798;2024-03-06T07:38:20;0.93;;;0.90;;
66702;SDS011;60933;46.398;-63.798;2024-03-06T07:40:48;0.50;;;0.40;;
66702;SDS011;60933;46.398;-63.798;2024-03-06T07:43:16;0.30;;;0.30;;
66702;SDS011;60933;46.398;-63.798;2024-03-06T07:45:45;0.50;;;0.20;;
66702;SDS011;60933;46.398;-63.798;2024-03-06T07:48:14;0.60;;;0.30;;
66702;SDS011;60933;46.398;-63.798;2024-03-06T07:50:42;0.40;;;0.20;;
66702;SDS011;60933;46.398;-63.798;2024-03-06T07:53:10;0.40;;;0.30;;
66702;SDS011;60933;46.398;-63.798;2024-03-06T07:55:38;0.22;;;0.22;;
66702;SDS011;60933;46.398;-63.798;2024-03-06T07:58:07;0.93;;;0.28;;
66702;SDS011;60933;46.398;-63.798;2024-03-06T08:00:36;0.55;;;0.28;;
66702;SDS011;60933;46.398;-63.798;2024-03-06T08:03:04;0.30;;;0.25;;
66702;SDS011;60933;46.398;-63.798;2024-03-06T08:05:32;0.30;;;0.30;;
66702;SDS011;60933;46.398;-63.798;2024-03-06T08:08:00;1.10;;;0.30;;
66702;SDS011;60933;46.398;-63.798;2024-03-06T08:10:30;0.28;;;0.20;;
66702;SDS011;60933;46.398;-63.798;2024-03-06T08:12:58;0.50;;;0.50;;
66702;SDS011;60933;46.398;-63.798;2024-03-06T08:15:26;1.10;;;0.32;;
66702;SDS011;60933;46.398;-63.798;2024-03-06T08:17:54;0.30;;;0.30;;
66702;SDS011;60933;46.398;-63.798;2024-03-06T08:20:22;0.28;;;0.28;;
66702;SDS011;60933;46.398;-63.798;2024-03-06T08:22:50;0.32;;;0.30;;
66702;SDS011;60933;46.398;-63.798;2024-03-06T08:25:18;0.20;;;0.10;;
66702;SDS011;60933;46.398;-63.798;2024-03-06T08:27:46;0.30;;;0.22;;
66702;SDS011;60933;46.398;-63.798;2024-03-06T08:30:14;0.47;;;0.20;;
66702;SDS011;60933;46.398;-63.798;2024-03-06T08:32:42;0.60;;;0.30;;
66702;SDS011;60933;46.398;-63.798;2024-03-06T08:35:12;0.30;;;0.30;;
66702;SDS011;60933;46.398;-63.798;2024-03-06T08:37:45;0.50;;;0.20;;
66702;SDS011;60933;46.398;-63.798;2024-03-06T08:40:13;0.17;;;0.13;;
66702;SDS011;60933;46.398;-63.798;2024-03-06T08:42:44;0.52;;;0.28;;
66702;SDS011;60933;46.398;-63.798;2024-03-06T08:45:14;0.88;;;0.30;;
66702;SDS011;60933;46.398;-63.798;2024-03-06T08:47:45;0.40;;;0.20;;
66702;SDS011;60933;46.398;-63.798;2024-03-06T08:50:15;0.38;;;0.20;;
66702;SDS011;60933;46.398;-63.798;2024-03-06T08:52:44;0.52;;;0.25;;
66702;SDS011;60933;46.398;-63.798;2024-03-06T08:55:13;0.40;;;0.20;;
66702;SDS011;60933;46.398;-63.798;2024-03-06T08:57:41;0.30;;;0.10;;
66702;SDS011;60933;46.398;-63.798;2024-03-06T09:00:09;0.55;;;0.20;;
66702;SDS011;60933;46.398;-63.798;2024-03-06T09:02:38;0.20;;;0.20;;
66702;SDS011;60933;46.398;-63.798;2024-03-06T09:05:09;0.30;;;0.20;;
66702;SDS011;60933;46.398;-63.798;2024-03-06T09:07:40;0.30;;;0.30;;
66702;SDS011;60933;46.398;-63.798;2024-03-06T09:10:09;0.50;;;0.10;;
66702;SDS011;60933;46.398;-63.798;2024-03-06T09:12:38;0.55;;;0.35;;
66702;SDS011;60933;46.398;-63.798;2024-03-06T09:15:07;0.17;;;0.17;;
66702;SDS011;60933;46.398;-63.798;2024-03-06T09:17:36;0.10;;;0.10;;
66702;SDS011;60933;46.398;-63.798;2024-03-06T09:20:04;0.98;;;0.20;;
66702;SDS011;60933;46.398;-63.798;2024-03-06T09:22:43;0.30;;;0.20;;
66702;SDS011;60933;46.398;-63.798;2024-03-06T09:25:11;0.45;;;0.45;;
66702;SDS011;60933;46.398;-63.798;2024-03-06T09:27:42;0.30;;;0.20;;
66702;SDS011;60933;46.398;-63.798;2024-03-06T09:30:10;0.20;;;0.10;;
66702;SDS011;60933;46.398;-63.798;2024-03-06T09:32:40;0.20;;;0.20;;
66702;SDS011;60933;46.398;-63.798;2024-03-06T09:35:09;0.60;;;0.20;;
66702;SDS011;60933;46.398;-63.798;2024-03-06T09:37:37;1.10;;;0.20;;
66702;SDS011;60933;46.398;-63.798;2024-03-06T09:40:05;0.20;;;0.20;;
66702;SDS011;60933;46.398;-63.798;2024-03-06T09:42:34;3.03;;;0.63;;
66702;SDS011;60933;46.398;-63.798;2024-03-06T09:45:02;0.50;;;0.50;;
66702;SDS011;60933;46.398;-63.798;2024-03-06T09:47:31;0.40;;;0.10;;
66702;SDS011;60933;46.398;-63.798;2024-03-06T09:50:03;0.20;;;0.10;;
66702;SDS011;60933;46.398;-63.798;2024-03-06T09:52:36;0.28;;;0.20;;
66702;SDS011;60933;46.398;-63.798;2024-03-06T09:55:04;0.68;;;0.32;;
66702;SDS011;60933;46.398;-63.798;2024-03-06T09:57:36;0.68;;;0.17;;
66702;SDS011;60933;46.398;-63.798;2024-03-06T10:00:05;0.30;;;0.10;;
66702;SDS011;60933;46.398;-63.798;2024-03-06T10:02:36;0.10;;;0.10;;
66702;SDS011;60933;46.398;-63.798;2024-03-06T10:05:06;0.70;;;0.43;;
66702;SDS011;60933;46.398;-63.798;2024-03-06T10:07:51;0.65;;;0.20;;
66702;SDS011;60933;46.398;-63.798;2024-03-06T10:10:20;0.28;;;0.20;;
66702;SDS011;60933;46.398;-63.798;2024-03-06T10:12:51;0.80;;;0.77;;
66702;SDS011;60933;46.398;-63.798;2024-03-06T10:15:19;0.15;;;0.10;;
66702;SDS011;60933;46.398;-63.798;2024-03-06T10:17:48;0.90;;;0.90;;
66702;SDS011;60933;46.398;-63.798;2024-03-06T10:20:17;0.45;;;0.20;;
66702;SDS011;60933;46.398;-63.798;2024-03-06T10:22:48;0.50;;;0.50;;
66702;SDS011;60933;46.398;-63.798;2024-03-06T10:25:25;0.20;;;0.10;;
66702;SDS011;60933;46.398;-63.798;2024-03-06T10:28:03;0.20;;;0.20;;
66702;SDS011;60933;46.398;-63.798;2024-03-06T10:30:39;0.75;;;0.43;;
66702;SDS011;60933;46.398;-63.798;2024-03-06T10:33:13;0.88;;;0.88;;
66702;SDS011;60933;46.398;-63.798;2024-03-06T10:35:43;0.20;;;0.20;;
66702;SDS011;60933;46.398;-63.798;2024-03-06T10:38:13;0.60;;;0.20;;
66702;SDS011;60933;46.398;-63.798;2024-03-06T10:40:43;1.23;;;1.13;;
66702;SDS011;60933;46.398;-63.798;2024-03-06T10:43:11;0.80;;;0.30;;
66702;SDS011;60933;46.398;-63.798;2024-03-06T10:48:38;2.38;;;1.83;;
66702;SDS011;60933;46.398;-63.798;2024-03-06T10:51:08;1.60;;;0.73;;
66702;SDS011;60933;46.398;-63.798;2024-03-06T10:53:38;1.52;;;0.85;;
66702;SDS011;60933;46.398;-63.798;2024-03-06T10:56:08;4.85;;;4.15;;
66702;SDS011;60933;46.398;-63.798;2024-03-06T10:58:37;3.15;;;2.85;;
66702;SDS011;60933;46.398;-63.798;2024-03-06T11:01:07;3.67;;;2.70;;
66702;SDS011;60933;46.398;-63.798;2024-03-06T11:03:37;3.15;;;1.63;;
66702;SDS011;60933;46.398;-63.798;2024-03-06T11:06:05;4.15;;;2.30;;
66702;SDS011;60933;46.398;-63.798;2024-03-06T11:08:34;3.85;;;2.45;;
66702;SDS011;60933;46.398;-63.798;2024-03-06T11:11:24;2.78;;;2.30;;
66702;SDS011;60933;46.398;-63.798;2024-03-06T11:13:59;2.28;;;1.58;;
66702;SDS011;60933;46.398;-63.798;2024-03-06T11:16:31;2.47;;;1.92;;
66702;SDS011;60933;46.398;-63.798;2024-03-06T11:19:07;2.20;;;2.00;;
66702;SDS011;60933;46.398;-63.798;2024-03-06T11:21:45;2.30;;;2.05;;
66702;SDS011;60933;46.398;-63.798;2024-03-06T11:26:46;3.78;;;2.22;;
66702;SDS011;60933;46.398;-63.798;2024-03-06T11:29:18;3.97;;;2.17;;
66702;SDS011;60933;46.398;-63.798;2024-03-06T11:32:00;6.18;;;2.95;;
66702;SDS011;60933;46.398;-63.798;2024-03-06T11:34:35;5.38;;;2.75;;
66702;SDS011;60933;46.398;-63.798;2024-03-06T11:37:05;2.80;;;1.17;;
66702;SDS011;60933;46.398;-63.798;2024-03-06T11:39:37;3.63;;;1.90;;
66702;SDS011;60933;46.398;-63.798;2024-03-06T11:42:06;4.45;;;2.15;;
66702;SDS011;60933;46.398;-63.798;2024-03-06T11:44:51;4.80;;;1.83;;
66702;SDS011;60933;46.398;-63.798;2024-03-06T11:47:24;5.38;;;1.90;;
66702;SDS011;60933;46.398;-63.798;2024-03-06T11:49:53;8.20;;;1.00;;
66702;SDS011;60933;46.398;-63.798;2024-03-06T11:52:21;2.25;;;1.00;;
66702;SDS011;60933;46.398;-63.798;2024-03-06T11:54:49;4.00;;;1.52;;
66702;SDS011;60933;46.398;-63.798;2024-03-06T11:57:20;3.10;;;1.45;;
66702;SDS011;60933;46.398;-63.798;2024-03-06T11:59:51;7.70;;;1.60;;
66702;SDS011;60933;46.398;-63.798;2024-03-06T12:02:20;3.92;;;1.77;;
66702;SDS011;60933;46.398;-63.798;2024-03-06T12:04:49;4.07;;;1.90;;
66702;SDS011;60933;46.398;-63.798;2024-03-06T12:07:18;2.40;;;0.98;;
66702;SDS011;60933;46.398;-63.798;2024-03-06T12:09:46;4.90;;;1.75;;
66702;SDS011;60933;46.398;-63.798;2024-03-06T12:12:14;1.75;;;0.80;;
66702;SDS011;60933;46.398;-63.798;2024-03-06T12:14:43;1.33;;;0.65;;
66702;SDS011;60933;46.398;-63.798;2024-03-06T12:17:11;1.85;;;1.00;;
66702;SDS011;60933;46.398;-63.798;2024-03-06T12:19:43;1.70;;;0.70;;
66702;SDS011;60933;46.398;-63.798;2024-03-06T12:22:12;1.05;;;0.50;;
66702;SDS011;60933;46.398;-63.798;2024-03-06T12:24:42;1.70;;;0.60;;
66702;SDS011;60933;46.398;-63.798;2024-03-06T12:27:10;1.50;;;0.55;;
66702;SDS011;60933;46.398;-63.798;2024-03-06T12:29:40;1.27;;;0.60;;
66702;SDS011;60933;46.398;-63.798;2024-03-06T12:32:16;0.75;;;0.30;;
66702;SDS011;60933;46.398;-63.798;2024-03-06T12:34:56;1.48;;;0.70;;
66702;SDS011;60933;46.398;-63.798;2024-03-06T12:37:32;2.20;;;1.25;;
66702;SDS011;60933;46.398;-63.798;2024-03-06T12:40:02;1.50;;;0.57;;
66702;SDS011;60933;46.398;-63.798;2024-03-06T12:42:32;0.85;;;0.40;;
66702;SDS011;60933;46.398;-63.798;2024-03-06T12:45:00;1.90;;;1.35;;
66702;SDS011;60933;46.398;-63.798;2024-03-06T12:47:30;11.43;;;5.75;;
66702;SDS011;60933;46.398;-63.798;2024-03-06T12:49:58;16.08;;;7.22;;
66702;SDS011;60933;46.398;-63.798;2024-03-06T12:52:27;19.27;;;7.43;;
66702;SDS011;60933;46.398;-63.798;2024-03-06T12:54:54;11.57;;;3.45;;
66702;SDS011;60933;46.398;-63.798;2024-03-06T12:57:22;2.95;;;1.30;;
66702;SDS011;60933;46.398;-63.798;2024-03-06T12:59:50;4.65;;;0.80;;
66702;SDS011;60933;46.398;-63.798;2024-03-06T13:02:18;1.15;;;0.40;;
66702;SDS011;60933;46.398;-63.798;2024-03-06T13:04:46;0.70;;;0.38;;
66702;SDS011;60933;46.398;-63.798;2024-03-06T13:07:14;0.90;;;0.50;;
66702;SDS011;60933;46.398;-63.798;2024-03-06T13:09:43;1.45;;;0.50;;
66702;SDS011;60933;46.398;-63.798;2024-03-06T13:12:11;0.70;;;0.40;;
66702;SDS011;60933;46.398;-63.798;2024-03-06T13:14:39;3.10;;;1.45;;
66702;SDS011;60933;46.398;-63.798;2024-03-06T13:17:07;1.30;;;0.80;;
66702;SDS011;60933;46.398;-63.798;2024-03-06T13:19:35;1.30;;;0.43;;
66702;SDS011;60933;46.398;-63.798;2024-03-06T13:22:03;0.95;;;0.30;;
66702;SDS011;60933;46.398;-63.798;2024-03-06T13:24:34;5.30;;;0.68;;
66702;SDS011;60933;46.398;-63.798;2024-03-06T13:27:06;3.38;;;0.40;;
66702;SDS011;60933;46.398;-63.798;2024-03-06T13:29:35;3.60;;;0.40;;
66702;SDS011;60933;46.398;-63.798;2024-03-06T13:32:03;1.23;;;0.40;;
66702;SDS011;60933;46.398;-63.798;2024-03-06T13:34:31;0.32;;;0.20;;
66702;SDS011;60933;46.398;-63.798;2024-03-06T13:37:00;0.90;;;0.38;;
66702;SDS011;60933;46.398;-63.798;2024-03-06T13:39:28;0.30;;;0.20;;
66702;SDS011;60933;46.398;-63.798;2024-03-06T13:41:56;4.25;;;2.45;;
66702;SDS011;60933;46.398;-63.798;2024-03-06T13:44:25;2.50;;;0.88;;
66702;SDS011;60933;46.398;-63.798;2024-03-06T13:46:53;0.60;;;0.30;;
66702;SDS011;60933;46.398;-63.798;2024-03-06T13:49:42;0.20;;;0.20;;
66702;SDS011;60933;46.398;-63.798;2024-03-06T13:52:10;0.10;;;0.10;;
66702;SDS011;60933;46.398;-63.798;2024-03-06T13:54:38;0.20;;;0.20;;
66702;SDS011;60933;46.398;-63.798;2024-03-06T13:57:07;0.75;;;0.75;;
66702;SDS011;60933;46.398;-63.798;2024-03-06T13:59:36;0.50;;;0.30;;
66702;SDS011;60933;46.398;-63.798;2024-03-06T14:02:05;1.25;;;0.30;;
66702;SDS011;60933;46.398;-63.798;2024-03-06T14:04:34;1.15;;;0.40;;
66702;SDS011;60933;46.398;-63.798;2024-03-06T14:07:03;1.10;;;0.25;;
66702;SDS011;60933;46.398;-63.798;2024-03-06T14:09:31;1.02;;;0.38;;
66702;SDS011;60933;46.398;-63.798;2024-03-06T14:11:59;0.40;;;0.28;;
66702;SDS011;60933;46.398;-63.798;2024-03-06T14:14:27;0.40;;;0.13;;
66702;SDS011;60933;46.398;-63.798;2024-03-06T14:16:56;1.35;;;1.25;;
66702;SDS011;60933;46.398;-63.798;2024-03-06T14:19:24;0.98;;;0.65;;
66702;SDS011;60933;46.398;-63.798;2024-03-06T14:21:52;2.08;;;0.20;;
66702;SDS011;60933;46.398;-63.798;2024-03-06T14:24:20;1.40;;;0.45;;
66702;SDS011;60933;46.398;-63.798;2024-03-06T14:26:48;2.03;;;0.73;;
66702;SDS011;60933;46.398;-63.798;2024-03-06T14:29:16;0.95;;;0.40;;
66702;SDS011;60933;46.398;-63.798;2024-03-06T14:31:44;0.93;;;0.30;;
66702;SDS011;60933;46.398;-63.798;2024-03-06T14:34:12;0.70;;;0.30;;
66702;SDS011;60933;46.398;-63.798;2024-03-06T14:36:41;0.82;;;0.20;;
66702;SDS011;60933;46.398;-63.798;2024-03-06T14:39:09;1.00;;;0.60;;
66702;SDS011;60933;46.398;-63.798;2024-03-06T14:41:41;1.60;;;0.55;;
66702;SDS011;60933;46.398;-63.798;2024-03-06T14:44:12;1.83;;;0.70;;
66702;SDS011;60933;46.398;-63.798;2024-03-06T14:46:41;0.93;;;0.40;;
66702;SDS011;60933;46.398;-63.798;2024-03-06T14:49:10;1.50;;;0.43;;